createdAt,value
2023-02-02T00:02:03.668Z,14.53
2023-02-02T00:04:40.672Z,14.10
2023-02-02T00:07:08.829Z,8.67
2023-02-02T00:09:42.706Z,8.87
2023-02-02T00:12:16.720Z,18.27
2023-02-02T00:14:50.709Z,11.10
2023-02-02T00:17:24.661Z,6.47
2023-02-02T00:19:52.126Z,12.00
2023-02-02T00:22:26.655Z,15.73
2023-02-02T00:24:54.381Z,8.73
2023-02-02T00:27:28.668Z,8.40
2023-02-02T00:29:57.563Z,14.30
2023-02-02T00:32:31.689Z,13.67
2023-02-02T00:35:05.713Z,11.10
2023-02-02T00:37:33.109Z,7.87
2023-02-02T00:40:06.709Z,11.33
2023-02-02T00:42:34.371Z,10.87
2023-02-02T00:45:24.002Z,3.90
2023-02-02T00:47:57.676Z,8.27
2023-02-02T00:50:31.687Z,8.60
2023-02-02T00:52:59.266Z,17.10
2023-02-02T00:55:33.669Z,7.53
2023-02-02T00:58:07.703Z,7.70
2023-02-02T01:00:35.127Z,9.97
2023-02-02T01:03:10.713Z,6.57
2023-02-02T01:05:38.078Z,9.43
2023-02-02T01:08:06.613Z,12.97
2023-02-02T01:10:43.165Z,7.50
2023-02-02T01:13:23.683Z,6.30
2023-02-02T01:15:57.868Z,10.03
2023-02-02T01:18:32.691Z,11.40
2023-02-02T01:21:12.694Z,16.30
2023-02-02T01:23:47.673Z,13.70
2023-02-02T01:26:22.690Z,11.23
2023-02-02T01:28:50.137Z,9.80
2023-02-02T01:31:25.697Z,17.23
2023-02-02T01:33:53.121Z,15.97
2023-02-02T01:36:29.651Z,9.53
2023-02-02T01:38:58.166Z,7.03
2023-02-02T01:41:32.662Z,11.13
2023-02-02T01:44:08.689Z,5.67
2023-02-02T01:46:37.610Z,13.40
2023-02-02T01:49:16.700Z,6.77
2023-02-02T01:51:55.271Z,7.87
2023-02-02T01:54:34.710Z,11.17
2023-02-02T01:57:15.653Z,9.57
2023-02-02T01:59:53.700Z,9.33
2023-02-02T02:02:27.696Z,5.73
2023-02-02T02:04:56.023Z,5.43
2023-02-02T02:07:23.966Z,10.53
2023-02-02T02:09:57.669Z,13.03
2023-02-02T02:12:31.743Z,17.63
2023-02-02T02:15:23.911Z,13.33
2023-02-02T02:18:10.512Z,7.73
2023-02-02T02:21:16.704Z,13.20
2023-02-02T02:24:17.895Z,17.30
2023-02-02T02:27:19.699Z,9.90
2023-02-02T02:30:33.777Z,14.20
2023-02-02T02:33:11.752Z,9.33
2023-02-02T02:35:45.742Z,15.70
2023-02-02T02:38:27.150Z,10.87
2023-02-02T02:41:11.734Z,7.50
2023-02-02T02:43:47.158Z,8.40
2023-02-02T02:46:21.700Z,6.73
2023-02-02T02:48:50.518Z,4.97
2023-02-02T02:51:56.730Z,9.50
2023-02-02T02:54:40.674Z,8.63
2023-02-02T02:57:10.833Z,3.47
2023-02-02T03:00:22.689Z,6.40
2023-02-02T03:03:16.446Z,4.80
2023-02-02T03:06:02.650Z,4.27
2023-02-02T03:08:47.682Z,4.90
2023-02-02T03:11:28.664Z,7.83
2023-02-02T03:14:10.706Z,4.30
2023-02-02T03:16:38.966Z,10.20
2023-02-02T03:19:13.709Z,10.63
2023-02-02T03:21:41.158Z,8.67
2023-02-02T03:24:15.704Z,9.50
2023-02-02T03:26:43.339Z,15.73
2023-02-02T03:29:17.720Z,8.43
2023-02-02T03:31:52.699Z,10.90
2023-02-02T03:34:26.732Z,11.80
2023-02-02T03:37:00.678Z,8.47
2023-02-02T03:39:34.737Z,6.73
2023-02-02T03:42:02.167Z,8.03
2023-02-02T03:44:35.691Z,11.33
2023-02-02T03:47:03.123Z,9.10
2023-02-02T03:49:36.709Z,10.23
2023-02-02T03:52:11.734Z,10.80
2023-02-02T03:54:46.700Z,12.40
2023-02-02T03:57:14.243Z,12.00
2023-02-02T03:59:48.737Z,9.47
2023-02-02T04:02:17.245Z,12.07
2023-02-02T04:04:50.714Z,10.73
2023-02-02T04:07:18.345Z,8.53
2023-02-02T04:09:52.715Z,14.27
2023-02-02T04:12:40.921Z,15.20
2023-02-02T04:15:16.744Z,13.13
2023-02-02T04:17:44.464Z,10.07
2023-02-02T04:20:18.683Z,8.60
2023-02-02T04:22:46.126Z,10.30
2023-02-02T04:25:21.810Z,13.87
2023-02-02T04:27:49.568Z,11.80
2023-02-02T04:30:23.685Z,17.30
2023-02-02T04:32:52.534Z,7.07
2023-02-02T04:35:26.889Z,15.00
2023-02-02T04:37:56.500Z,9.57
2023-02-02T04:40:30.716Z,7.93
2023-02-02T04:42:58.794Z,13.17
2023-02-02T04:45:32.716Z,12.30
2023-02-02T04:48:00.463Z,11.97
2023-02-02T04:50:34.756Z,8.03
2023-02-02T04:53:02.877Z,13.10
2023-02-02T04:55:36.664Z,14.63
2023-02-02T04:58:11.745Z,9.77
2023-02-02T05:00:45.701Z,9.50
2023-02-02T05:03:13.198Z,9.47
2023-02-02T05:05:46.703Z,11.60
2023-02-02T05:08:14.173Z,13.80
2023-02-02T05:10:48.684Z,17.07
2023-02-02T05:13:29.718Z,14.50
2023-02-02T05:16:03.720Z,15.60
2023-02-02T05:18:31.760Z,15.33
2023-02-02T05:21:09.704Z,14.30
2023-02-02T05:23:43.722Z,16.53
2023-02-02T05:26:16.634Z,11.80
2023-02-02T05:28:50.840Z,12.10
2023-02-02T05:31:18.768Z,14.90
2023-02-02T05:33:53.733Z,12.37
2023-02-02T05:36:21.295Z,10.30
2023-02-02T05:38:55.685Z,11.17
2023-02-02T05:41:30.907Z,13.03
2023-02-02T05:44:00.276Z,12.80
2023-02-02T05:46:34.770Z,12.60
2023-02-02T05:49:11.690Z,13.13
2023-02-02T05:51:48.713Z,14.53
2023-02-02T05:54:26.726Z,9.37
2023-02-02T05:57:02.734Z,13.17
2023-02-02T05:59:30.380Z,11.83
2023-02-02T06:02:04.736Z,17.63
2023-02-02T06:04:32.227Z,10.47
2023-02-02T06:07:25.729Z,9.40
2023-02-02T06:09:53.135Z,16.80
2023-02-02T06:12:34.725Z,11.70
2023-02-02T06:15:09.328Z,11.33
2023-02-02T06:17:43.685Z,7.87
2023-02-02T06:20:11.646Z,10.67
2023-02-02T06:22:45.726Z,8.73
2023-02-02T06:25:13.198Z,14.53
2023-02-02T06:27:47.727Z,6.70
2023-02-02T06:30:15.724Z,10.50
2023-02-02T06:32:49.720Z,8.73
2023-02-02T06:35:17.865Z,8.33
2023-02-02T06:37:51.722Z,8.43
2023-02-02T06:40:19.333Z,12.03
2023-02-02T06:42:53.735Z,8.33
2023-02-02T06:45:21.187Z,5.93
2023-02-02T06:47:54.884Z,8.03
2023-02-02T06:50:28.738Z,6.37
2023-02-02T06:53:02.858Z,9.37
2023-02-02T06:55:36.755Z,16.43
2023-02-02T06:58:10.791Z,12.93
2023-02-02T07:00:38.377Z,18.40
2023-02-02T07:03:12.784Z,6.67
2023-02-02T07:05:47.804Z,11.47
2023-02-02T07:08:23.951Z,8.13
2023-02-02T07:11:11.495Z,11.93
2023-02-02T07:13:59.976Z,12.80
2023-02-02T07:16:33.899Z,13.03
2023-02-02T07:19:01.474Z,7.63
2023-02-02T07:21:41.952Z,10.63
2023-02-02T07:24:09.740Z,12.73
2023-02-02T07:26:44.040Z,10.07
2023-02-02T07:29:21.913Z,18.07
2023-02-02T07:31:56.059Z,10.60
2023-02-02T07:34:24.081Z,19.53
2023-02-02T07:36:59.015Z,12.53
2023-02-02T07:39:32.990Z,9.87
2023-02-02T07:42:01.119Z,16.23
2023-02-02T07:44:35.947Z,11.37
2023-02-02T07:47:03.734Z,10.57
2023-02-02T07:49:37.931Z,11.03
2023-02-02T07:52:11.965Z,11.90
2023-02-02T07:54:47.018Z,13.33
2023-02-02T07:57:17.484Z,13.17
2023-02-02T07:59:57.979Z,14.17
2023-02-02T08:02:25.686Z,14.73
2023-02-02T08:05:00.014Z,19.50
2023-02-02T08:07:27.891Z,12.70
2023-02-02T08:10:02.009Z,12.10
2023-02-02T08:12:50.996Z,8.23
2023-02-02T08:15:25.518Z,9.77
2023-02-02T08:17:53.519Z,11.60
2023-02-02T08:20:21.229Z,17.00
2023-02-02T08:22:55.026Z,16.90
2023-02-02T08:25:29.050Z,12.10
2023-02-02T08:27:59.008Z,14.53
2023-02-02T08:30:32.990Z,15.53
2023-02-02T08:33:07.002Z,19.33
2023-02-02T08:35:34.609Z,11.23
2023-02-02T08:38:11.975Z,13.43
2023-02-02T08:40:46.038Z,11.10
2023-02-02T08:43:13.506Z,11.40
2023-02-02T08:46:02.745Z,18.10
2023-02-02T08:48:40.013Z,12.23
2023-02-02T08:51:16.963Z,19.20
2023-02-02T08:53:45.317Z,15.77
2023-02-02T08:56:24.987Z,17.87
2023-02-02T08:58:54.985Z,17.63
2023-02-02T09:01:32.956Z,15.80
2023-02-02T09:04:08.363Z,15.50
2023-02-02T09:06:45.094Z,18.17
2023-02-02T09:09:15.555Z,15.17
2023-02-02T09:11:49.992Z,11.00
2023-02-02T09:14:17.718Z,11.60
2023-02-02T09:16:52.007Z,14.93
2023-02-02T09:19:26.052Z,11.60
2023-02-02T09:21:53.639Z,10.67
2023-02-02T09:24:28.071Z,14.17
2023-02-02T09:26:55.813Z,10.40
2023-02-02T09:29:30.005Z,22.33
2023-02-02T09:32:04.071Z,15.13
2023-02-02T09:34:40.089Z,12.60
2023-02-02T09:37:07.779Z,13.97
2023-02-02T09:39:43.026Z,13.00
2023-02-02T09:42:35.992Z,12.03
2023-02-02T09:45:18.043Z,20.13
2023-02-02T09:48:02.019Z,10.33
2023-02-02T09:50:44.967Z,13.97
2023-02-02T09:53:28.998Z,8.80
2023-02-02T09:56:10.959Z,18.57
2023-02-02T09:58:50.029Z,13.13
2023-02-02T10:01:54.999Z,9.50
2023-02-02T10:04:37.976Z,11.53
2023-02-02T10:07:42.012Z,15.23
2023-02-02T10:10:21.372Z,14.03
2023-02-02T10:13:36.970Z,15.33
2023-02-02T10:16:30.147Z,7.27
2023-02-02T10:19:17.980Z,12.53
2023-02-02T10:22:00.526Z,11.17
2023-02-02T10:24:38.046Z,10.37
2023-02-02T10:27:30.000Z,10.93
2023-02-02T10:30:01.152Z,7.40
2023-02-02T10:32:55.965Z,12.00
2023-02-02T10:35:45.512Z,10.47
2023-02-02T10:38:35.119Z,11.83
2023-02-02T10:41:28.251Z,14.67
2023-02-02T10:44:18.102Z,14.30
2023-02-02T10:46:59.993Z,14.33
2023-02-02T10:49:36.754Z,7.57
2023-02-02T10:52:23.008Z,11.60
2023-02-02T10:54:58.360Z,9.57
2023-02-02T10:58:03.175Z,10.97
2023-02-02T11:00:52.646Z,14.80
2023-02-02T11:03:32.003Z,11.50
2023-02-02T11:06:21.175Z,8.60
2023-02-02T11:09:05.038Z,8.97
2023-02-02T11:12:02.967Z,12.07
2023-02-02T11:15:12.022Z,10.70
2023-02-02T11:17:45.998Z,10.10
2023-02-02T11:20:34.223Z,9.57
2023-02-02T11:23:13.964Z,8.87
2023-02-02T11:25:42.944Z,9.87
2023-02-02T11:28:28.124Z,9.13
2023-02-02T11:31:03.190Z,9.37
2023-02-02T11:33:49.017Z,9.27
2023-02-02T11:36:21.963Z,12.87
2023-02-02T11:38:56.420Z,10.53
2023-02-02T11:41:24.189Z,6.13
2023-02-02T11:44:02.973Z,11.23
2023-02-02T11:46:34.903Z,7.97
2023-02-02T11:49:25.958Z,6.73
2023-02-02T11:52:12.817Z,8.73
2023-02-02T11:54:45.489Z,7.20
2023-02-02T11:57:35.056Z,8.07
2023-02-02T12:00:12.186Z,5.83
2023-02-02T12:02:56.168Z,10.17
2023-02-02T12:05:33.072Z,7.97
2023-02-02T12:08:01.146Z,14.43
2023-02-02T12:10:49.005Z,4.87
2023-02-02T12:14:18.061Z,9.17
2023-02-02T12:17:09.034Z,10.80
2023-02-02T12:19:59.051Z,9.20
2023-02-02T12:22:53.980Z,10.27
2023-02-02T12:25:49.010Z,8.30
2023-02-02T12:28:32.046Z,8.57
2023-02-02T12:31:24.037Z,8.17
2023-02-02T12:33:56.748Z,9.03
2023-02-02T12:36:42.019Z,7.33
2023-02-02T12:39:24.039Z,12.67
2023-02-02T12:42:19.432Z,14.47
2023-02-02T12:45:11.031Z,10.70
2023-02-02T12:47:59.032Z,6.70
2023-02-02T12:50:46.076Z,11.97
2023-02-02T12:53:30.661Z,8.23
2023-02-02T12:56:36.008Z,9.73
2023-02-02T12:59:50.077Z,6.80
2023-02-02T13:02:30.174Z,10.90
2023-02-02T13:05:11.020Z,10.43
2023-02-02T13:07:51.134Z,8.30
2023-02-02T13:10:49.035Z,11.20
2023-02-02T13:13:57.183Z,7.80
2023-02-02T13:16:33.043Z,10.60
2023-02-02T13:19:20.057Z,13.77
2023-02-02T13:21:48.571Z,11.97
2023-02-02T13:24:30.033Z,9.03
2023-02-02T13:27:06.054Z,9.17
2023-02-02T13:30:00.969Z,12.07
2023-02-02T13:32:38.301Z,11.13
2023-02-02T13:35:26.464Z,10.33
2023-02-02T13:38:02.027Z,13.70
2023-02-02T13:40:49.046Z,13.10
2023-02-02T13:43:37.389Z,10.30
2023-02-02T13:46:05.455Z,10.37
2023-02-02T13:48:45.099Z,10.50
2023-02-02T13:51:51.063Z,13.67
2023-02-02T13:54:50.029Z,13.43
2023-02-02T13:57:33.054Z,12.20
2023-02-02T14:00:19.821Z,10.47
2023-02-02T14:02:58.062Z,8.10
2023-02-02T14:05:34.976Z,6.67
2023-02-02T14:08:31.068Z,10.73
2023-02-02T14:11:16.057Z,11.60
2023-02-02T14:14:37.055Z,6.37
2023-02-02T14:17:16.680Z,11.00
2023-02-02T14:20:06.135Z,10.87
2023-02-02T14:22:51.897Z,10.10
2023-02-02T14:25:41.522Z,9.93
2023-02-02T14:28:40.107Z,14.27
2023-02-02T14:31:29.512Z,6.07
2023-02-02T14:34:37.129Z,11.27
2023-02-02T14:37:26.593Z,8.40
2023-02-02T14:40:13.129Z,14.10
2023-02-02T14:43:45.159Z,8.33
2023-02-02T14:46:22.110Z,10.63
2023-02-02T14:49:21.167Z,6.83
2023-02-02T14:52:08.260Z,12.37
2023-02-02T14:54:42.437Z,13.97
2023-02-02T14:57:36.134Z,13.07
2023-02-02T15:00:11.098Z,9.17
2023-02-02T15:02:45.182Z,11.10
2023-02-02T15:05:38.954Z,12.07
2023-02-02T15:08:34.167Z,12.23
2023-02-02T15:11:40.252Z,10.23
2023-02-02T15:14:31.169Z,10.57
2023-02-02T15:17:32.207Z,7.73
2023-02-02T15:20:29.173Z,6.97
2023-02-02T15:23:26.266Z,4.73
2023-02-02T15:26:25.118Z,10.87
2023-02-02T15:29:12.254Z,7.50
2023-02-02T15:31:54.536Z,12.53
2023-02-02T15:34:52.194Z,9.30
2023-02-02T15:37:34.207Z,7.13
2023-02-02T15:40:04.709Z,6.90
2023-02-02T15:43:02.194Z,8.50
2023-02-02T15:45:37.237Z,7.10
2023-02-02T15:48:32.488Z,16.17
2023-02-02T15:51:12.187Z,9.23
2023-02-02T15:53:42.801Z,5.33
2023-02-02T15:56:31.181Z,5.60
2023-02-02T15:59:00.724Z,8.10
2023-02-02T16:01:39.535Z,6.17
2023-02-02T16:04:33.435Z,4.27
2023-02-02T16:07:02.754Z,8.00
2023-02-02T16:09:41.178Z,4.33
2023-02-02T16:12:31.247Z,4.67
2023-02-02T16:15:28.364Z,2.93
2023-02-02T16:18:18.248Z,4.13
2023-02-02T16:20:54.177Z,4.10
2023-02-02T16:23:37.307Z,5.03
2023-02-02T16:26:07.556Z,3.60
2023-02-02T16:28:35.664Z,3.60
2023-02-02T16:31:10.309Z,4.70
2023-02-02T16:33:51.330Z,7.97
2023-02-02T16:36:36.283Z,4.23
2023-02-02T16:39:21.200Z,3.37
2023-02-02T16:41:57.184Z,3.33
2023-02-02T16:44:44.567Z,5.67
2023-02-02T16:47:34.159Z,4.73
2023-02-02T16:50:17.227Z,3.97
2023-02-02T16:53:07.259Z,2.23
2023-02-02T16:55:49.761Z,6.93
2023-02-02T16:58:29.234Z,12.07
2023-02-02T17:01:17.010Z,3.40
2023-02-02T17:03:52.659Z,3.80
2023-02-02T17:06:52.291Z,5.37
2023-02-02T17:09:44.197Z,4.13
2023-02-02T17:12:34.868Z,1.90
2023-02-02T17:15:45.195Z,4.73
2023-02-02T17:18:12.547Z,3.67
2023-02-02T17:20:47.193Z,6.00
2023-02-02T17:23:24.197Z,7.53
2023-02-02T17:25:52.347Z,5.97
2023-02-02T17:28:30.211Z,3.73
2023-02-02T17:31:06.559Z,4.67
2023-02-02T17:33:42.168Z,5.60
2023-02-02T17:36:13.949Z,4.13
2023-02-02T17:38:48.236Z,4.37
2023-02-02T17:41:22.201Z,3.90
2023-02-02T17:43:49.543Z,5.40
2023-02-02T17:46:24.271Z,4.93
2023-02-02T17:48:58.197Z,6.40
2023-02-02T17:51:25.857Z,4.73
2023-02-02T17:54:04.230Z,6.77
2023-02-02T17:56:38.498Z,3.37
2023-02-02T17:59:07.201Z,3.60
2023-02-02T18:01:43.243Z,2.43
2023-02-02T18:04:12.819Z,3.60
2023-02-02T18:06:47.192Z,3.17
2023-02-02T18:09:14.525Z,3.27
2023-02-02T18:11:52.238Z,3.03
2023-02-02T18:14:33.210Z,5.00
2023-02-02T18:17:15.215Z,2.07
2023-02-02T18:19:46.326Z,4.60
2023-02-02T18:22:21.267Z,1.97
2023-02-02T18:24:55.255Z,2.70
2023-02-02T18:27:22.681Z,4.53
2023-02-02T18:29:50.101Z,2.67
2023-02-02T18:32:24.273Z,2.93
2023-02-02T18:34:56.082Z,6.47
2023-02-02T18:37:32.258Z,3.57
2023-02-02T18:40:07.818Z,3.00
2023-02-02T18:42:36.326Z,3.70
2023-02-02T18:45:12.272Z,7.90
2023-02-02T18:47:46.243Z,4.50
2023-02-02T18:50:14.024Z,8.97
2023-02-02T18:52:48.299Z,6.20
2023-02-02T18:55:15.740Z,8.60
2023-02-02T18:57:49.233Z,4.20
2023-02-02T19:00:16.832Z,5.17
2023-02-02T19:02:51.287Z,4.43
2023-02-02T19:05:37.267Z,6.10
2023-02-02T19:08:12.282Z,8.50
2023-02-02T19:10:41.284Z,8.63
2023-02-02T19:13:24.268Z,4.07
2023-02-02T19:16:09.285Z,3.00
2023-02-02T19:18:43.321Z,4.40
2023-02-02T19:21:14.719Z,4.23
2023-02-02T19:23:50.296Z,6.30
2023-02-02T19:26:26.172Z,6.50
2023-02-02T19:29:02.314Z,4.93
2023-02-02T19:31:31.829Z,2.43
2023-02-02T19:34:07.675Z,5.50
2023-02-02T19:36:38.429Z,3.83
2023-02-02T19:39:19.668Z,3.37
2023-02-02T19:41:47.813Z,4.83
2023-02-02T19:44:27.642Z,6.33
2023-02-02T19:46:56.749Z,4.13
2023-02-02T19:49:42.665Z,5.27
2023-02-02T19:52:25.674Z,4.10
2023-02-02T19:55:00.649Z,4.90
2023-02-02T19:57:43.684Z,6.57
2023-02-02T20:00:35.704Z,4.87
2023-02-02T20:03:13.733Z,2.27
2023-02-02T20:05:46.863Z,5.90
2023-02-02T20:08:42.701Z,3.70
2023-02-02T20:11:46.672Z,3.37
2023-02-02T20:14:35.707Z,4.27
2023-02-02T20:17:06.664Z,1.87
2023-02-02T20:19:46.687Z,2.03
2023-02-02T20:22:34.644Z,4.17
2023-02-02T20:25:06.959Z,2.33
2023-02-02T20:27:41.664Z,3.73
2023-02-02T20:30:32.180Z,3.87
2023-02-02T20:33:09.752Z,4.90
2023-02-02T20:35:41.803Z,7.13
2023-02-02T20:38:31.112Z,5.30
2023-02-02T20:40:59.653Z,2.87
2023-02-02T20:43:33.689Z,3.30
2023-02-02T20:46:01.139Z,5.63
2023-02-02T20:48:36.902Z,4.43
2023-02-02T20:51:04.672Z,4.17
2023-02-02T20:53:38.688Z,7.50
2023-02-02T20:56:06.405Z,6.37
2023-02-02T20:58:41.694Z,8.20
2023-02-02T21:01:09.063Z,8.93
2023-02-02T21:03:36.577Z,10.67
2023-02-02T21:06:10.674Z,3.33
2023-02-02T21:08:45.675Z,8.20
2023-02-02T21:11:13.164Z,5.03
2023-02-02T21:13:46.670Z,13.27
2023-02-02T21:16:21.581Z,6.13
2023-02-02T21:18:55.692Z,7.63
2023-02-02T21:21:29.711Z,7.90
2023-02-02T21:23:57.260Z,8.63
2023-02-02T21:26:36.719Z,12.80
2023-02-02T21:29:07.534Z,6.43
2023-02-02T21:31:42.180Z,10.40
2023-02-02T21:34:10.184Z,9.50
2023-02-02T21:36:46.136Z,7.33
2023-02-02T21:39:37.195Z,5.30
2023-02-02T21:42:19.120Z,4.80
2023-02-02T21:45:32.139Z,3.93
2023-02-02T21:48:01.899Z,4.90
2023-02-02T21:50:48.124Z,6.67
2023-02-02T21:53:25.913Z,8.57
2023-02-02T21:56:03.090Z,6.80
2023-02-02T21:58:40.353Z,3.67
2023-02-02T22:01:39.156Z,6.87
2023-02-02T22:04:25.106Z,5.20
2023-02-02T22:07:19.157Z,5.20
2023-02-02T22:09:55.151Z,3.77
2023-02-02T22:12:25.488Z,10.30
2023-02-02T22:15:11.131Z,7.57
2023-02-02T22:17:46.838Z,6.60
2023-02-02T22:20:24.600Z,3.93
2023-02-02T22:22:59.100Z,3.03
2023-02-02T22:25:35.727Z,6.07
2023-02-02T22:28:17.208Z,6.03
2023-02-02T22:30:51.209Z,3.83
2023-02-02T22:33:25.151Z,3.73
2023-02-02T22:35:53.165Z,7.77
2023-02-02T22:38:30.088Z,4.30
2023-02-02T22:41:04.200Z,6.80
2023-02-02T22:43:31.673Z,6.30
2023-02-02T22:46:07.251Z,4.70
2023-02-02T22:48:41.181Z,5.10
2023-02-02T22:51:08.705Z,2.73
2023-02-02T22:53:42.163Z,3.93
2023-02-02T22:56:09.521Z,3.93
2023-02-02T22:58:43.081Z,4.50
2023-02-02T23:01:18.180Z,4.27
2023-02-02T23:03:47.572Z,5.27
2023-02-02T23:06:21.119Z,3.10
2023-02-02T23:08:57.172Z,2.53
2023-02-02T23:11:24.551Z,5.70
2023-02-02T23:14:05.188Z,6.70
2023-02-02T23:16:40.705Z,3.90
2023-02-02T23:19:14.247Z,4.40
2023-02-02T23:21:41.665Z,4.33
2023-02-02T23:24:16.241Z,6.03
2023-02-02T23:26:50.206Z,4.30
2023-02-02T23:29:18.618Z,3.03
2023-02-02T23:31:52.367Z,3.30
2023-02-02T23:34:19.910Z,5.47
2023-02-02T23:36:55.203Z,2.73
2023-02-02T23:39:30.228Z,5.30
2023-02-02T23:41:57.779Z,4.23
2023-02-02T23:44:33.205Z,5.80
2023-02-02T23:47:09.176Z,4.43
2023-02-02T23:49:38.230Z,5.73
2023-02-02T23:52:06.280Z,6.43
2023-02-02T23:54:41.306Z,9.07
2023-02-02T23:57:08.909Z,7.30
2023-02-02T23:59:43.302Z,5.80
